Time;durP1;ratioP1;P1;durP2;ratioP2;P2;SDS_P1;SDS_P2;PMS_P1;PMS_P2;Temp;Humidity;BMP_temperature;BMP_pressure;BME280_temperature;BME280_humidity;BME280_pressure;Samples;Min_cycle;Max_cycle;Signal;HPM_P1;HPM_P2
2022/05/30 00:01:06;;;;;;;3.03;1.88;;;;;;;;;;5076637;28;20107;-65
2022/05/30 00:03:31;;;;;;;6.53;2.08;;;;;;;;;;5085323;28;20512;-65
2022/05/30 00:05:56;;;;;;;3.47;1.83;;;;;;;;;;5085268;28;20655;-65
2022/05/30 00:08:21;;;;;;;6.82;1.90;;;;;;;;;;5080306;28;20041;-65
2022/05/30 00:10:47;;;;;;;5.82;1.70;;;;;;;;;;5072053;28;20078;-65
2022/05/30 00:13:12;;;;;;;5.57;1.77;;;;;;;;;;5085119;28;20116;-65
2022/05/30 00:15:38;;;;;;;6.00;2.47;;;;;;;;;;5080775;28;20047;-65
2022/05/30 00:18:04;;;;;;;3.92;1.70;;;;;;;;;;5086960;28;20035;-65
2022/05/30 00:20:29;;;;;;;6.50;2.20;;;;;;;;;;5076282;28;20131;-65
2022/05/30 00:22:54;;;;;;;7.03;2.00;;;;;;;;;;5084594;28;20036;-65
2022/05/30 00:25:21;;;;;;;4.63;1.95;;;;;;;;;;5077760;28;20048;-65
2022/05/30 00:27:46;;;;;;;4.70;2.17;;;;;;;;;;5084248;28;20035;-65
2022/05/30 00:30:13;;;;;;;3.42;2.00;;;;;;;;;;5085966;28;20020;-65
2022/05/30 00:32:38;;;;;;;4.10;2.00;;;;;;;;;;5077685;28;20064;-65
2022/05/30 00:35:04;;;;;;;4.20;1.98;;;;;;;;;;5068508;28;20508;-65
2022/05/30 00:37:29;;;;;;;5.03;2.22;;;;;;;;;;5083912;28;20097;-65
2022/05/30 00:39:55;;;;;;;3.97;2.00;;;;;;;;;;5075003;28;20513;-65
2022/05/30 00:42:26;;;;;;;7.90;2.58;;;;;;;;;;5083820;28;20035;-65
2022/05/30 00:44:53;;;;;;;11.45;2.28;;;;;;;;;;5080499;28;20034;-65
2022/05/30 00:47:20;;;;;;;4.20;1.92;;;;;;;;;;5082793;28;20036;-65
2022/05/30 00:49:48;;;;;;;4.30;2.20;;;;;;;;;;5081515;28;20043;-65
2022/05/30 00:52:20;;;;;;;3.97;2.10;;;;;;;;;;5079461;28;20047;-65
2022/05/30 00:54:52;;;;;;;5.93;2.28;;;;;;;;;;5081057;28;20039;-65
2022/05/30 00:57:20;;;;;;;4.28;2.13;;;;;;;;;;5072440;28;20035;-65
2022/05/30 00:59:54;;;;;;;4.25;1.92;;;;;;;;;;5079059;28;20536;-65
2022/05/30 01:02:24;;;;;;;6.13;2.50;;;;;;;;;;5072414;28;20048;-65
2022/05/30 01:07:36;;;;;;;8.32;1.90;;;;;;;;;;5084064;28;20035;-65
2022/05/30 01:10:04;;;;;;;6.47;2.25;;;;;;;;;;5084199;28;20032;-65
2022/05/30 01:12:39;;;;;;;3.22;2.00;;;;;;;;;;5075123;28;20024;-65
2022/05/30 01:15:08;;;;;;;6.25;2.30;;;;;;;;;;5085227;28;20013;-65
2022/05/30 01:17:40;;;;;;;5.68;1.95;;;;;;;;;;5083506;28;20032;-65
2022/05/30 01:20:20;;;;;;;4.25;1.90;;;;;;;;;;5085174;28;20048;-65
2022/05/30 01:23:03;;;;;;;2.80;1.80;;;;;;;;;;5084504;28;20039;-65
2022/05/30 01:25:51;;;;;;;2.78;1.80;;;;;;;;;;5087528;28;20078;-65
2022/05/30 01:28:22;;;;;;;3.28;1.90;;;;;;;;;;5085829;28;20043;-65
2022/05/30 01:30:48;;;;;;;3.95;2.05;;;;;;;;;;5084634;28;20039;-65
2022/05/30 01:33:14;;;;;;;5.18;2.10;;;;;;;;;;5083916;28;20008;-65
2022/05/30 01:35:39;;;;;;;2.85;1.83;;;;;;;;;;5088798;28;20528;-65
2022/05/30 01:38:05;;;;;;;3.92;1.75;;;;;;;;;;5084019;28;20067;-65
2022/05/30 01:40:31;;;;;;;2.55;1.75;;;;;;;;;;5083428;28;20036;-65
2022/05/30 01:42:56;;;;;;;5.32;2.05;;;;;;;;;;5078271;28;20047;-65
2022/05/30 01:45:24;;;;;;;3.67;2.08;;;;;;;;;;5091191;28;20027;-65
2022/05/30 01:47:50;;;;;;;4.47;2.20;;;;;;;;;;5077395;28;20548;-65
2022/05/30 01:50:16;;;;;;;6.05;2.17;;;;;;;;;;5072301;28;20036;-65
2022/05/30 01:52:42;;;;;;;3.53;2.10;;;;;;;;;;5090762;28;20044;-65
2022/05/30 01:55:08;;;;;;;5.00;1.95;;;;;;;;;;5077503;28;20036;-65
2022/05/30 01:57:33;;;;;;;5.53;2.00;;;;;;;;;;5088417;28;20629;-65
2022/05/30 01:59:58;;;;;;;5.00;2.08;;;;;;;;;;5088219;28;20020;-65
2022/05/30 02:02:23;;;;;;;2.70;1.80;;;;;;;;;;5086493;28;20085;-65
2022/05/30 02:04:50;;;;;;;4.25;1.95;;;;;;;;;;5087093;28;20028;-65
2022/05/30 02:07:16;;;;;;;2.83;2.10;;;;;;;;;;5078701;28;20052;-65
2022/05/30 02:09:41;;;;;;;3.17;1.95;;;;;;;;;;5083081;28;20540;-65
2022/05/30 02:12:07;;;;;;;4.30;2.20;;;;;;;;;;5087103;28;20107;-65
2022/05/30 02:14:33;;;;;;;3.65;1.95;;;;;;;;;;5088550;28;20032;-65
2022/05/30 02:17:00;;;;;;;3.67;2.20;;;;;;;;;;5088891;28;20035;-65
2022/05/30 02:19:27;;;;;;;3.35;2.20;;;;;;;;;;5092219;28;20040;-65
2022/05/30 02:21:53;;;;;;;6.18;2.13;;;;;;;;;;5087276;28;20045;-65
2022/05/30 02:24:18;;;;;;;6.22;2.53;;;;;;;;;;5083963;28;20054;-65
2022/05/30 02:26:44;;;;;;;3.88;1.80;;;;;;;;;;5088866;28;20853;-65
2022/05/30 02:29:10;;;;;;;5.00;2.25;;;;;;;;;;5087220;28;20044;-66
2022/05/30 02:31:36;;;;;;;4.88;2.20;;;;;;;;;;5078539;28;20457;-65
2022/05/30 02:36:45;;;;;;;5.65;2.45;;;;;;;;;;5070020;28;20512;-65
2022/05/30 02:39:19;;;;;;;6.43;2.30;;;;;;;;;;5078744;28;20032;-65
2022/05/30 02:41:45;;;;;;;4.72;2.42;;;;;;;;;;5087299;28;20115;-65
2022/05/30 02:44:11;;;;;;;5.35;2.30;;;;;;;;;;5089417;28;20590;-65
2022/05/30 02:46:36;;;;;;;4.03;1.95;;;;;;;;;;5097986;28;20040;-65
2022/05/30 02:49:02;;;;;;;3.83;2.22;;;;;;;;;;5097585;28;20038;-65
2022/05/30 02:51:28;;;;;;;5.40;2.42;;;;;;;;;;5085838;28;20404;-65
2022/05/30 02:53:53;;;;;;;4.68;2.42;;;;;;;;;;5083945;28;20028;-65
2022/05/30 02:56:19;;;;;;;3.40;2.13;;;;;;;;;;5085210;28;20031;-65
2022/05/30 02:58:44;;;;;;;4.60;1.83;;;;;;;;;;5082913;28;20096;-65
2022/05/30 03:01:10;;;;;;;4.70;2.00;;;;;;;;;;5087663;28;20040;-65
2022/05/30 03:03:36;;;;;;;4.15;2.10;;;;;;;;;;5084966;28;20043;-65
2022/05/30 03:06:03;;;;;;;4.43;1.80;;;;;;;;;;5084645;28;20032;-65
2022/05/30 03:08:28;;;;;;;2.40;1.75;;;;;;;;;;5088673;28;20036;-65
2022/05/30 03:10:54;;;;;;;8.13;2.40;;;;;;;;;;5087174;28;20086;-65
2022/05/30 03:13:20;;;;;;;5.85;2.30;;;;;;;;;;5078530;28;20075;-65
2022/05/30 03:15:45;;;;;;;4.32;1.90;;;;;;;;;;5091927;28;20032;-65
2022/05/30 03:18:10;;;;;;;3.88;2.08;;;;;;;;;;5091612;28;20371;-65
2022/05/30 03:20:36;;;;;;;4.15;2.03;;;;;;;;;;5080856;28;20192;-65
2022/05/30 03:23:01;;;;;;;4.78;2.13;;;;;;;;;;5082421;28;20047;-65
2022/05/30 03:25:27;;;;;;;4.57;2.22;;;;;;;;;;5083241;28;20393;-65
2022/05/30 03:27:53;;;;;;;4.93;2.50;;;;;;;;;;5080134;28;20040;-65
2022/05/30 03:30:19;;;;;;;3.75;2.28;;;;;;;;;;5078283;28;20035;-65
2022/05/30 03:32:44;;;;;;;5.32;2.60;;;;;;;;;;5085338;28;20384;-65
2022/05/30 03:35:11;;;;;;;3.45;2.17;;;;;;;;;;5083255;28;20437;-65
2022/05/30 03:37:37;;;;;;;4.57;2.40;;;;;;;;;;5076568;28;20032;-65
2022/05/30 03:40:04;;;;;;;6.28;2.50;;;;;;;;;;5085161;28;20081;-65
2022/05/30 03:42:30;;;;;;;4.78;2.63;;;;;;;;;;5082185;28;20160;-65
2022/05/30 03:44:55;;;;;;;5.50;2.50;;;;;;;;;;5087670;28;20035;-65
2022/05/30 03:47:20;;;;;;;4.93;2.50;;;;;;;;;;5086456;28;20047;-65
2022/05/30 03:49:46;;;;;;;8.95;2.92;;;;;;;;;;5089416;28;20174;-65
2022/05/30 03:52:14;;;;;;;3.72;2.25;;;;;;;;;;5081340;28;20055;-64
2022/05/30 03:54:39;;;;;;;6.97;2.00;;;;;;;;;;5082860;28;20116;-65
2022/05/30 03:57:05;;;;;;;5.60;2.53;;;;;;;;;;5084469;28;20110;-65
2022/05/30 03:59:30;;;;;;;5.70;2.50;;;;;;;;;;5078441;28;20043;-65
2022/05/30 04:01:55;;;;;;;8.85;2.30;;;;;;;;;;5080782;28;20059;-65
2022/05/30 04:04:21;;;;;;;5.10;2.35;;;;;;;;;;5081731;28;20058;-65
2022/05/30 04:06:46;;;;;;;5.80;2.65;;;;;;;;;;5085559;28;20039;-65
2022/05/30 04:09:11;;;;;;;6.00;2.45;;;;;;;;;;5077131;28;20024;-64
2022/05/30 04:11:37;;;;;;;5.93;2.60;;;;;;;;;;5081263;28;20033;-65
2022/05/30 04:14:02;;;;;;;5.28;2.80;;;;;;;;;;5081065;28;20130;-65
2022/05/30 04:16:28;;;;;;;6.53;2.60;;;;;;;;;;5091228;28;20505;-65
2022/05/30 04:18:53;;;;;;;5.03;2.75;;;;;;;;;;5087662;28;20642;-64
2022/05/30 04:21:19;;;;;;;7.05;3.00;;;;;;;;;;5082597;28;20040;-65
2022/05/30 04:23:45;;;;;;;3.60;2.50;;;;;;;;;;5082745;28;20134;-65
2022/05/30 04:26:13;;;;;;;8.23;2.67;;;;;;;;;;5084038;28;20040;-64
2022/05/30 04:28:39;;;;;;;5.00;2.28;;;;;;;;;;5083961;28;20211;-65
2022/05/30 04:31:12;;;;;;;5.15;2.95;;;;;;;;;;5082379;28;20135;-65
2022/05/30 04:33:37;;;;;;;;;;;;;;;;;;5085636;28;20123;-65
2022/05/30 04:36:06;;;;;;;6.15;3.13;;;;;;;;;;5080025;28;20015;-65
2022/05/30 04:38:32;;;;;;;7.85;3.25;;;;;;;;;;5078673;28;20040;-65
2022/05/30 04:40:57;;;;;;;6.47;2.85;;;;;;;;;;5084290;28;20513;-65
2022/05/30 04:43:23;;;;;;;10.05;3.25;;;;;;;;;;5081190;28;20536;-64
2022/05/30 04:46:15;;;;;;;5.60;3.08;;;;;;;;;;5082366;28;20044;-64
2022/05/30 04:48:41;;;;;;;6.47;3.20;;;;;;;;;;5076395;28;20040;-65
2022/05/30 04:51:06;;;;;;;7.40;3.17;;;;;;;;;;5086206;28;20050;-65
2022/05/30 04:53:32;;;;;;;6.78;3.67;;;;;;;;;;5088443;28;20413;-65
2022/05/30 04:55:58;;;;;;;8.77;3.58;;;;;;;;;;5074347;28;20132;-65
2022/05/30 04:58:24;;;;;;;8.38;3.95;;;;;;;;;;5085715;28;20032;-65
2022/05/30 05:00:49;;;;;;;8.52;4.00;;;;;;;;;;5089713;28;20039;-65
2022/05/30 05:03:15;;;;;;;7.47;3.63;;;;;;;;;;5088969;28;20008;-65
2022/05/30 05:05:40;;;;;;;8.45;3.70;;;;;;;;;;5087679;28;20038;-65
2022/05/30 05:08:26;;;;;;;8.25;3.80;;;;;;;;;;5076338;28;20044;-65
2022/05/30 05:11:15;;;;;;;10.98;4.07;;;;;;;;;;5081131;28;20524;-65
2022/05/30 05:13:41;;;;;;;11.52;4.18;;;;;;;;;;5077268;28;20085;-65
2022/05/30 05:16:06;;;;;;;9.15;3.78;;;;;;;;;;5088732;28;20036;-65
2022/05/30 05:18:32;;;;;;;12.45;4.18;;;;;;;;;;5087211;28;20028;-65
2022/05/30 05:20:57;;;;;;;11.25;4.25;;;;;;;;;;5084819;28;20059;-65
2022/05/30 05:23:23;;;;;;;11.13;5.22;;;;;;;;;;5088517;28;20071;-65
2022/05/30 05:25:48;;;;;;;12.38;4.82;;;;;;;;;;5086546;28;20031;-65
2022/05/30 05:28:14;;;;;;;11.15;4.82;;;;;;;;;;5086761;28;20032;-65
2022/05/30 05:30:41;;;;;;;14.10;5.03;;;;;;;;;;5083114;28;20036;-65
2022/05/30 05:33:06;;;;;;;10.18;4.70;;;;;;;;;;5085992;28;20012;-65
2022/05/30 05:35:32;;;;;;;11.93;4.50;;;;;;;;;;5088420;28;20578;-66
2022/05/30 05:37:58;;;;;;;12.48;5.03;;;;;;;;;;5084809;28;20115;-65
2022/05/30 05:40:24;;;;;;;15.02;5.47;;;;;;;;;;5088687;28;20039;-65
2022/05/30 05:42:49;;;;;;;11.75;5.28;;;;;;;;;;5090554;28;20032;-65
2022/05/30 05:45:14;;;;;;;14.63;5.60;;;;;;;;;;5088975;28;20046;-65
2022/05/30 05:47:40;;;;;;;11.25;5.15;;;;;;;;;;5086312;28;20082;-65
2022/05/30 05:50:06;;;;;;;14.73;5.50;;;;;;;;;;5087845;28;20047;-65
2022/05/30 05:52:32;;;;;;;14.45;5.85;;;;;;;;;;5088034;28;20097;-65
2022/05/30 05:54:58;;;;;;;12.70;6.13;;;;;;;;;;5090077;28;20063;-65
2022/05/30 05:57:27;;;;;;;12.10;5.65;;;;;;;;;;5089714;28;20519;-64
2022/05/30 05:59:52;;;;;;;13.82;5.95;;;;;;;;;;5092684;28;20024;-66
2022/05/30 06:02:18;;;;;;;13.98;5.47;;;;;;;;;;5086039;28;20551;-65
2022/05/30 06:04:44;;;;;;;11.43;5.25;;;;;;;;;;5086355;28;20032;-65
2022/05/30 06:07:10;;;;;;;11.63;5.18;;;;;;;;;;5100529;28;20032;-65
2022/05/30 06:09:35;;;;;;;14.38;5.75;;;;;;;;;;5098562;27;20024;-65
2022/05/30 06:12:00;;;;;;;12.95;5.55;;;;;;;;;;5091402;28;20035;-65
2022/05/30 06:14:26;;;;;;;14.25;5.63;;;;;;;;;;5089214;28;20028;-65
2022/05/30 06:16:52;;;;;;;13.95;5.20;;;;;;;;;;5087207;28;20028;-66
2022/05/30 06:19:18;;;;;;;13.27;4.88;;;;;;;;;;5084617;28;20032;-65
2022/05/30 06:21:44;;;;;;;15.43;4.70;;;;;;;;;;5084338;28;20036;-65
2022/05/30 06:24:10;;;;;;;9.77;4.85;;;;;;;;;;5081730;28;20081;-65
2022/05/30 06:26:35;;;;;;;19.17;9.07;;;;;;;;;;5089302;28;20051;-64
2022/05/30 06:29:02;;;;;;;13.73;5.13;;;;;;;;;;5089400;28;20043;-65
2022/05/30 06:31:29;;;;;;;9.50;3.97;;;;;;;;;;5089057;28;20405;-65
2022/05/30 06:33:55;;;;;;;7.43;3.30;;;;;;;;;;5084137;28;20056;-65
2022/05/30 06:36:25;;;;;;;8.95;3.40;;;;;;;;;;5088309;28;20032;-65
2022/05/30 06:38:52;;;;;;;14.13;4.28;;;;;;;;;;5089653;28;20016;-65
2022/05/30 06:41:24;;;;;;;12.75;3.92;;;;;;;;;;5080431;28;20386;-65
2022/05/30 06:44:04;;;;;;;10.27;3.78;;;;;;;;;;5073522;28;20029;-64
2022/05/30 06:46:31;;;;;;;14.68;4.18;;;;;;;;;;5077891;28;20110;-65
2022/05/30 06:48:56;;;;;;;8.77;3.70;;;;;;;;;;5076967;28;20063;-65
2022/05/30 06:51:23;;;;;;;6.50;3.50;;;;;;;;;;5073016;28;20168;-65
2022/05/30 06:53:49;;;;;;;8.90;3.63;;;;;;;;;;5078085;28;20023;-65
2022/05/30 06:56:18;;;;;;;11.63;3.67;;;;;;;;;;5076786;28;20040;-65
2022/05/30 06:58:44;;;;;;;11.63;3.80;;;;;;;;;;5078565;28;20565;-65
2022/05/30 07:01:09;;;;;;;13.65;4.35;;;;;;;;;;5078368;28;20027;-65
2022/05/30 07:03:36;;;;;;;8.35;3.63;;;;;;;;;;5078646;28;20048;-65
2022/05/30 07:06:06;;;;;;;10.68;4.10;;;;;;;;;;5072276;28;20101;-64
2022/05/30 07:08:31;;;;;;;10.32;3.53;;;;;;;;;;5083680;28;20036;-65
2022/05/30 07:10:57;;;;;;;12.63;3.22;;;;;;;;;;5077957;28;20140;-65
2022/05/30 07:13:22;;;;;;;6.93;2.97;;;;;;;;;;5094912;28;20043;-65
2022/05/30 07:15:49;;;;;;;8.00;3.13;;;;;;;;;;5074596;28;20055;-65
2022/05/30 07:18:16;;;;;;;9.27;3.08;;;;;;;;;;5096882;28;20114;-65
2022/05/30 07:20:41;;;;;;;13.10;3.00;;;;;;;;;;5078059;28;20056;-64
2022/05/30 07:23:07;;;;;;;8.63;2.70;;;;;;;;;;5074594;28;20087;-65
2022/05/30 07:25:38;;;;;;;7.68;2.40;;;;;;;;;;5073821;28;20513;-65
2022/05/30 07:28:05;;;;;;;8.10;2.60;;;;;;;;;;5082073;28;20032;-65
2022/05/30 07:30:33;;;;;;;8.93;2.72;;;;;;;;;;5078855;28;20039;-65
2022/05/30 07:32:58;;;;;;;14.00;2.90;;;;;;;;;;5088923;28;20136;-64
2022/05/30 07:35:24;;;;;;;4.72;2.10;;;;;;;;;;5085402;28;20241;-65
2022/05/30 07:37:50;;;;;;;4.55;2.03;;;;;;;;;;5082780;28;20061;-64
2022/05/30 07:40:16;;;;;;;8.00;2.60;;;;;;;;;;5084655;28;20043;-65
2022/05/30 07:42:41;;;;;;;5.88;2.20;;;;;;;;;;5087152;28;20044;-65
2022/05/30 07:45:09;;;;;;;6.20;2.25;;;;;;;;;;5084508;28;20401;-65
2022/05/30 07:47:34;;;;;;;7.88;2.20;;;;;;;;;;5086653;28;20043;-64
2022/05/30 07:50:02;;;;;;;7.03;2.67;;;;;;;;;;5086238;28;20040;-65
2022/05/30 07:52:30;;;;;;;7.28;2.63;;;;;;;;;;5087035;28;20040;-65
2022/05/30 07:54:55;;;;;;;7.47;2.58;;;;;;;;;;5078434;28;20043;-65
2022/05/30 07:57:50;;;;;;;7.47;1.75;;;;;;;;;;5088535;28;20031;-65
2022/05/30 08:00:07;;;;;;;7.53;2.42;;;;;;;;;;5087375;28;20040;-65
2022/05/30 08:02:32;;;;;;;4.55;1.88;;;;;;;;;;5087081;28;20438;-65
2022/05/30 08:04:57;;;;;;;9.20;1.85;;;;;;;;;;5073593;28;20198;-65
2022/05/30 08:07:23;;;;;;;5.35;2.00;;;;;;;;;;5072605;28;20040;-65
2022/05/30 08:09:48;;;;;;;7.63;2.20;;;;;;;;;;5078375;28;20051;-66
2022/05/30 08:12:13;;;;;;;4.13;1.75;;;;;;;;;;5079118;28;20023;-65
2022/05/30 08:14:39;;;;;;;6.53;2.10;;;;;;;;;;5087506;28;20039;-65
2022/05/30 08:17:05;;;;;;;5.32;2.10;;;;;;;;;;5082882;28;20039;-65
2022/05/30 08:19:31;;;;;;;3.33;1.90;;;;;;;;;;5087235;28;20062;-65
2022/05/30 08:22:08;;;;;;;5.35;2.10;;;;;;;;;;5084796;28;20044;-65
2022/05/30 08:24:35;;;;;;;5.03;1.80;;;;;;;;;;5077998;28;20032;-65
2022/05/30 08:27:02;;;;;;;4.80;2.40;;;;;;;;;;5084188;28;20020;-65
2022/05/30 08:29:28;;;;;;;6.55;3.05;;;;;;;;;;5083363;28;20036;-66
2022/05/30 08:31:53;;;;;;;7.90;3.33;;;;;;;;;;5086761;28;20052;-66
2022/05/30 08:34:18;;;;;;;4.43;2.83;;;;;;;;;;5082688;28;20036;-66
2022/05/30 08:36:44;;;;;;;9.02;3.70;;;;;;;;;;5081657;28;20032;-66
2022/05/30 08:41:54;;;;;;;5.78;2.90;;;;;;;;;;5083097;28;20059;-66
2022/05/30 08:44:19;;;;;;;10.18;3.30;;;;;;;;;;5078307;28;20437;-66
2022/05/30 08:46:57;;;;;;;6.30;3.28;;;;;;;;;;5084361;28;20123;-67
2022/05/30 08:49:26;;;;;;;7.10;3.47;;;;;;;;;;5082993;28;20055;-66
2022/05/30 08:52:28;;;;;;;7.20;3.28;;;;;;;;;;5074096;28;20116;-66
2022/05/30 08:55:02;;;;;;;5.32;2.92;;;;;;;;;;5074621;28;20036;-67
2022/05/30 08:58:04;;;;;;;10.25;3.50;;;;;;;;;;5086150;28;20077;-66
2022/05/30 09:00:48;;;;;;;7.72;3.38;;;;;;;;;;5076422;28;21506;-66
2022/05/30 09:03:43;;;;;;;8.52;3.80;;;;;;;;;;5085361;28;20447;-66
2022/05/30 09:06:25;;;;;;;9.23;3.03;;;;;;;;;;5082361;28;20051;-66
2022/05/30 09:09:25;;;;;;;6.65;2.35;;;;;;;;;;5077061;28;20036;-66
2022/05/30 09:11:57;;;;;;;9.93;2.90;;;;;;;;;;5066366;28;20156;-66
2022/05/30 09:14:34;;;;;;;6.78;2.67;;;;;;;;;;5080707;28;20039;-66
2022/05/30 09:17:02;;;;;;;6.40;3.00;;;;;;;;;;5082672;28;20039;-66
2022/05/30 09:19:28;;;;;;;21.17;3.00;;;;;;;;;;5082020;28;20136;-66
2022/05/30 09:22:01;;;;;;;5.07;2.70;;;;;;;;;;5078586;28;20687;-66
2022/05/30 09:24:29;;;;;;;8.90;2.90;;;;;;;;;;5078283;28;20020;-66
2022/05/30 09:26:57;;;;;;;6.75;3.15;;;;;;;;;;5079121;28;20016;-66
2022/05/30 09:29:27;;;;;;;7.28;2.92;;;;;;;;;;5085733;28;20731;-65
2022/05/30 09:32:07;;;;;;;5.72;2.45;;;;;;;;;;5075518;28;20837;-66
2022/05/30 09:34:46;;;;;;;7.95;2.78;;;;;;;;;;5079654;28;20066;-66
2022/05/30 09:37:33;;;;;;;6.80;3.03;;;;;;;;;;5074853;28;20044;-66
2022/05/30 09:39:58;;;;;;;7.00;2.67;;;;;;;;;;5081273;28;20059;-66
2022/05/30 09:42:28;;;;;;;7.30;3.15;;;;;;;;;;5084895;28;20071;-66
2022/05/30 09:45:13;;;;;;;6.45;2.90;;;;;;;;;;5090078;28;20461;-65
2022/05/30 09:47:57;;;;;;;4.78;2.05;;;;;;;;;;5080869;28;20048;-66
2022/05/30 09:50:23;;;;;;;7.15;3.08;;;;;;;;;;5085023;28;20800;-65
2022/05/30 09:52:48;;;;;;;4.53;2.40;;;;;;;;;;5085037;28;20598;-66
2022/05/30 09:55:23;;;;;;;4.97;2.70;;;;;;;;;;5086362;28;20064;-65
2022/05/30 09:57:50;;;;;;;6.35;2.22;;;;;;;;;;5085696;28;20093;-66
2022/05/30 10:00:21;;;;;;;5.32;2.03;;;;;;;;;;5085291;28;20576;-65
2022/05/30 10:02:59;;;;;;;2.45;1.63;;;;;;;;;;5091224;28;20428;-65
2022/05/30 10:05:28;;;;;;;5.93;1.88;;;;;;;;;;5086191;28;20040;-66
2022/05/30 10:07:59;;;;;;;8.93;2.15;;;;;;;;;;5079862;28;20126;-66
2022/05/30 10:10:47;;;;;;;5.50;1.98;;;;;;;;;;5083702;28;20048;-66
2022/05/30 10:13:12;;;;;;;4.60;2.20;;;;;;;;;;5086639;28;20036;-66
2022/05/30 10:15:43;;;;;;;4.72;2.30;;;;;;;;;;5087182;28;20055;-65
2022/05/30 10:18:17;;;;;;;4.55;1.98;;;;;;;;;;5087560;28;20030;-66
2022/05/30 10:21:07;;;;;;;2.50;1.90;;;;;;;;;;5082258;28;20044;-66
2022/05/30 10:29:50;;;;;;;4.80;2.42;;;;;;;;;;5082030;28;20050;-66
2022/05/30 10:32:26;;;;;;;6.18;2.78;;;;;;;;;;5088746;28;20081;-66
2022/05/30 10:35:16;;;;;;;5.80;2.55;;;;;;;;;;5085766;28;20131;-66
2022/05/30 10:38:03;;;;;;;7.68;2.63;;;;;;;;;;5081081;28;20047;-66
2022/05/30 10:40:53;;;;;;;4.32;2.60;;;;;;;;;;5089195;28;20039;-66
2022/05/30 10:43:25;;;;;;;5.32;2.72;;;;;;;;;;5070803;28;20433;-66
2022/05/30 10:45:58;;;;;;;6.90;2.92;;;;;;;;;;5084266;28;20035;-66
2022/05/30 10:48:27;;;;;;;4.40;2.67;;;;;;;;;;5086947;28;20059;-66
2022/05/30 10:50:58;;;;;;;4.68;2.50;;;;;;;;;;5085826;28;20583;-66
2022/05/30 10:53:57;;;;;;;5.88;2.63;;;;;;;;;;5080477;28;20085;-66
2022/05/30 10:56:30;;;;;;;4.53;2.63;;;;;;;;;;5086201;28;20543;-66
2022/05/30 10:59:09;;;;;;;6.88;3.22;;;;;;;;;;5080673;28;20059;-66
2022/05/30 11:01:46;;;;;;;7.38;3.72;;;;;;;;;;5080933;28;20173;-66
2022/05/30 11:04:31;;;;;;;9.75;4.00;;;;;;;;;;5083047;28;20047;-66
2022/05/30 11:07:08;;;;;;;6.95;3.40;;;;;;;;;;5082432;28;20043;-66
2022/05/30 11:09:40;;;;;;;5.78;3.08;;;;;;;;;;5082399;28;20595;-66
2022/05/30 11:12:06;;;;;;;5.60;3.05;;;;;;;;;;5081374;28;20016;-65
2022/05/30 11:14:41;;;;;;;4.53;2.88;;;;;;;;;;5086331;28;20051;-66
2022/05/30 11:17:17;;;;;;;6.30;3.10;;;;;;;;;;5081506;28;20036;-66
2022/05/30 11:19:58;;;;;;;7.60;3.33;;;;;;;;;;5079981;28;20127;-66
2022/05/30 11:22:31;;;;;;;5.45;3.00;;;;;;;;;;5082300;28;20416;-66
2022/05/30 11:24:56;;;;;;;4.97;2.80;;;;;;;;;;5085438;28;20028;-66
2022/05/30 11:27:39;;;;;;;7.47;3.30;;;;;;;;;;5078347;28;20443;-66
2022/05/30 11:30:23;;;;;;;4.27;2.67;;;;;;;;;;5085049;28;20051;-66
2022/05/30 11:33:02;;;;;;;;;;;;;;;;;;5083556;28;20367;-66
2022/05/30 11:35:31;;;;;;;6.07;2.70;;;;;;;;;;5080788;28;19916;-66
2022/05/30 11:38:27;;;;;;;4.88;3.17;;;;;;;;;;5083830;28;20044;-66
2022/05/30 11:40:58;;;;;;;5.63;2.92;;;;;;;;;;5077700;28;20123;-66
2022/05/30 11:43:36;;;;;;;6.57;2.90;;;;;;;;;;5079205;28;20045;-66
2022/05/30 11:46:13;;;;;;;7.07;3.05;;;;;;;;;;5072729;28;20414;-66
2022/05/30 11:49:06;;;;;;;5.43;2.90;;;;;;;;;;5086652;28;20027;-65
2022/05/30 11:51:50;;;;;;;4.28;2.58;;;;;;;;;;5086286;28;20036;-66
2022/05/30 11:54:29;;;;;;;4.45;2.90;;;;;;;;;;5087706;28;20024;-66
2022/05/30 11:57:29;;;;;;;7.03;3.28;;;;;;;;;;5083321;28;20036;-66
2022/05/30 12:00:07;;;;;;;6.93;3.10;;;;;;;;;;5079678;28;20524;-66
2022/05/30 12:02:45;;;;;;;8.07;3.17;;;;;;;;;;5081624;28;20036;-66
2022/05/30 12:05:47;;;;;;;5.22;2.90;;;;;;;;;;5091695;28;20039;-66
2022/05/30 12:08:15;;;;;;;5.65;3.58;;;;;;;;;;5088765;28;20127;-66
2022/05/30 12:10:54;;;;;;;5.85;3.15;;;;;;;;;;5081561;28;20512;-66
2022/05/30 12:13:25;;;;;;;4.72;2.70;;;;;;;;;;5076088;28;20043;-66
2022/05/30 12:16:07;;;;;;;6.10;2.88;;;;;;;;;;5078214;28;20039;-66
2022/05/30 12:24:49;;;;;;;4.32;2.80;;;;;;;;;;5082741;28;20515;-65
2022/05/30 12:27:37;;;;;;;6.35;2.72;;;;;;;;;;5081782;28;20035;-66
2022/05/30 12:30:06;;;;;;;4.65;2.70;;;;;;;;;;5081221;28;20039;-66
2022/05/30 12:32:39;;;;;;;7.13;2.10;;;;;;;;;;5080892;28;20102;-66
2022/05/30 12:35:14;;;;;;;2.95;2.17;;;;;;;;;;5086037;28;20115;-66
2022/05/30 12:37:45;;;;;;;2.80;2.03;;;;;;;;;;5081224;28;20464;-66
2022/05/30 12:40:12;;;;;;;3.20;2.35;;;;;;;;;;5083238;28;20032;-66
2022/05/30 12:42:45;;;;;;;4.80;2.35;;;;;;;;;;5083343;28;20035;-66
2022/05/30 12:45:21;;;;;;;4.90;2.67;;;;;;;;;;5083721;28;20040;-66
2022/05/30 12:47:54;;;;;;;4.57;2.70;;;;;;;;;;5079416;28;20040;-66
2022/05/30 12:50:23;;;;;;;6.20;2.65;;;;;;;;;;5085050;28;20606;-66
2022/05/30 12:52:58;;;;;;;4.93;2.58;;;;;;;;;;5085816;28;20039;-66
2022/05/30 12:55:40;;;;;;;6.82;2.90;;;;;;;;;;5078802;28;20048;-66
2022/05/30 12:58:11;;;;;;;7.47;3.20;;;;;;;;;;5079904;28;20043;-66
2022/05/30 13:00:36;;;;;;;6.38;3.08;;;;;;;;;;5077618;28;21329;-66
2022/05/30 13:03:20;;;;;;;5.45;3.13;;;;;;;;;;5084566;28;20730;-66
2022/05/30 13:05:46;;;;;;;;;;;;;;;;;;5088215;28;20043;-65
2022/05/30 13:08:46;;;;;;;3.53;2.83;;;;;;;;;;5076042;28;20343;-65
2022/05/30 13:11:21;;;;;;;8.18;3.30;;;;;;;;;;5083293;28;20040;-65
2022/05/30 13:13:53;;;;;;;6.70;3.80;;;;;;;;;;5079321;28;20536;-66
2022/05/30 13:16:48;;;;;;;6.85;3.90;;;;;;;;;;5070592;28;20047;-66
2022/05/30 13:19:15;;;;;;;7.32;2.90;;;;;;;;;;5080249;28;20024;-66
2022/05/30 13:21:48;;;;;;;4.95;3.22;;;;;;;;;;5079009;28;20021;-66
2022/05/30 13:24:29;;;;;;;9.25;3.30;;;;;;;;;;5081133;28;20036;-66
2022/05/30 13:26:55;;;;;;;8.13;3.67;;;;;;;;;;5079977;28;20040;-66
2022/05/30 13:29:27;;;;;;;9.57;3.40;;;;;;;;;;5085338;28;20039;-66
2022/05/30 13:31:52;;;;;;;5.45;3.00;;;;;;;;;;5085532;28;20039;-66
2022/05/30 13:34:24;;;;;;;6.50;3.15;;;;;;;;;;5082000;28;20043;-66
2022/05/30 13:36:50;;;;;;;5.50;2.92;;;;;;;;;;5082588;28;20039;-66
2022/05/30 13:39:15;;;;;;;7.40;3.20;;;;;;;;;;5083911;28;20031;-66
2022/05/30 13:41:41;;;;;;;6.78;3.50;;;;;;;;;;5086881;28;20044;-65
2022/05/30 13:44:12;;;;;;;5.45;3.22;;;;;;;;;;5077305;28;20036;-65
2022/05/30 13:46:47;;;;;;;5.45;3.67;;;;;;;;;;5086786;28;20585;-65
2022/05/30 13:49:12;;;;;;;8.27;3.60;;;;;;;;;;5083348;28;20115;-66
2022/05/30 13:51:43;;;;;;;5.35;3.33;;;;;;;;;;5080617;28;20142;-66
2022/05/30 13:54:10;;;;;;;8.23;3.53;;;;;;;;;;5085023;28;20028;-66
2022/05/30 13:56:36;;;;;;;5.45;2.90;;;;;;;;;;5081779;28;20035;-66
2022/05/30 13:59:06;;;;;;;4.63;3.20;;;;;;;;;;5083115;28;20058;-66
2022/05/30 14:01:34;;;;;;;6.47;3.40;;;;;;;;;;5081048;28;20034;-65
2022/05/30 14:04:08;;;;;;;7.63;3.33;;;;;;;;;;5084324;28;20438;-66
2022/05/30 14:06:34;;;;;;;5.85;3.20;;;;;;;;;;5077941;28;20444;-65
2022/05/30 14:09:03;;;;;;;4.95;3.33;;;;;;;;;;5083364;28;20031;-66
2022/05/30 14:11:34;;;;;;;5.75;3.10;;;;;;;;;;5081435;28;20041;-66
2022/05/30 14:13:59;;;;;;;5.75;2.97;;;;;;;;;;5082010;28;20071;-66
2022/05/30 14:16:42;;;;;;;6.43;3.20;;;;;;;;;;5080584;28;20467;-66
2022/05/30 14:19:24;;;;;;;5.50;3.03;;;;;;;;;;5081756;28;20063;-66
2022/05/30 14:21:54;;;;;;;6.53;3.20;;;;;;;;;;5082574;28;20270;-66
2022/05/30 14:24:31;;;;;;;4.97;3.00;;;;;;;;;;5086709;28;20089;-65
2022/05/30 14:26:58;;;;;;;7.40;3.22;;;;;;;;;;5080858;28;20131;-66
2022/05/30 14:29:32;;;;;;;13.45;2.97;;;;;;;;;;5083652;28;20052;-66
2022/05/30 14:32:07;;;;;;;7.55;3.20;;;;;;;;;;5084516;28;20036;-66
2022/05/30 14:34:42;;;;;;;11.65;4.65;;;;;;;;;;5080867;28;20127;-65
2022/05/30 14:37:37;;;;;;;6.00;3.08;;;;;;;;;;5081283;28;20777;-66
2022/05/30 14:40:31;;;;;;;4.85;2.95;;;;;;;;;;5085751;28;20089;-66
2022/05/30 14:42:58;;;;;;;5.90;3.22;;;;;;;;;;5082392;28;20509;-66
2022/05/30 14:45:39;;;;;;;4.63;3.17;;;;;;;;;;5076376;28;20591;-66
2022/05/30 14:48:18;;;;;;;4.63;2.92;;;;;;;;;;5079817;28;20040;-66
2022/05/30 14:50:48;;;;;;;6.50;2.67;;;;;;;;;;5083924;28;20037;-66
2022/05/30 14:53:19;;;;;;;5.25;2.75;;;;;;;;;;5081477;28;20032;-66
2022/05/30 14:56:10;;;;;;;6.68;3.20;;;;;;;;;;5081737;28;20047;-66
2022/05/30 14:58:41;;;;;;;4.28;2.80;;;;;;;;;;5078555;28;20040;-66
2022/05/30 15:01:11;;;;;;;5.03;2.90;;;;;;;;;;5084096;28;20069;-66
2022/05/30 15:06:24;;;;;;;5.03;2.88;;;;;;;;;;5076552;28;20145;-66
2022/05/30 15:08:52;;;;;;;6.28;2.78;;;;;;;;;;5079170;28;20040;-66
2022/05/30 15:11:19;;;;;;;5.30;2.75;;;;;;;;;;5081405;28;20066;-66
2022/05/30 15:13:48;;;;;;;5.15;2.92;;;;;;;;;;5079387;28;20505;-66
2022/05/30 15:16:14;;;;;;;5.00;2.50;;;;;;;;;;5086856;28;20421;-66
2022/05/30 15:18:40;;;;;;;5.47;2.70;;;;;;;;;;5087129;28;20593;-66
2022/05/30 15:21:08;;;;;;;4.85;3.00;;;;;;;;;;5086231;28;20052;-66
2022/05/30 15:23:34;;;;;;;5.70;2.70;;;;;;;;;;5082136;28;20126;-66
2022/05/30 15:25:59;;;;;;;4.65;2.53;;;;;;;;;;5080406;28;20112;-66